logo
Search for airport 
image banner adimage banner adimage banner ad
image banner ad

MRAO - Helipuerto Aerotortuguero

Located in Roxana, Costa Rica

ICAO - MRAO, IATA - TTQ

Data provided by Airmate  

General information

Coordinates: N10°24'56" W83°36'40"
Elevation is 82 feet MSL.
 
View others Airports in Limon

Operational data

Special qualification required
Current time UTC:
Current local time:
Weather at : MRPV - Tobias Bolanos Intl ( 77 km )
METAR: MRPV 202300Z 23006KT 9999 -DZ FEW020TCU SCT035 SCT120 25/19 A3002 NOSIG
TAF: TAF MRPV 202340Z 2100/2124 24003KT 9999 SCT030 TX32/2118Z TN19/2111Z BECMG 2102/2104 10005KT BECMG 2115/2118 26007KT PROB40 TEMPO 2120/2123 TSRA FEW015TCU
View NOTAMs / SUP AIP / TFR affecting this airport [VIEW]
Communications frequencies: [VIEW]

Runways:

RWY identifierQFULength (ft)Width (ft)SurfaceLDA (ft)
0220°311839ASP
20200°311839ASP

Airport contact information

Address: Roxana Costa Rica

Satellite view of MRAO